Time;durP1;ratioP1;P1;durP2;ratioP2;P2;SDS_P1;SDS_P2;PMS_P1;PMS_P2;Temp;Humidity;BMP_temperature;BMP_pressure;BME280_temperature;BME280_humidity;BME280_pressure;Samples;Min_cycle;Max_cycle;Signal;HPM_P1;HPM_P2
2022/06/18 00:00:15;;;;;;;2.20;1.10;;;16.40;93.90;;;;;;5047133;28;20504;-77
2022/06/18 00:02:41;;;;;;;1.97;1.00;;;16.30;94.10;;;;;;5046108;28;20198;-77
2022/06/18 00:05:07;;;;;;;5.17;1.60;;;16.40;94.10;;;;;;5057275;28;20440;-77
2022/06/18 00:07:42;;;;;;;1.67;0.80;;;16.40;94.20;;;;;;5045774;28;20408;-77
2022/06/18 00:10:12;;;;;;;3.43;1.40;;;16.40;94.20;;;;;;5047997;28;20424;-77
2022/06/18 00:15:25;;;;;;;5.10;1.50;;;16.30;94.70;;;;;;5047956;28;20474;-76
2022/06/18 00:17:52;;;;;;;2.23;1.00;;;16.20;94.70;;;;;;5050627;28;20464;-78
2022/06/18 00:20:20;;;;;;;2.93;1.00;;;16.20;94.50;;;;;;5053232;28;20481;-77
2022/06/18 00:22:49;;;;;;;2.27;0.90;;;16.10;94.50;;;;;;5081170;28;20459;-76
2022/06/18 00:25:20;;;;;;;3.00;1.13;;;16.00;94.90;;;;;;5047060;28;20430;-78
2022/06/18 00:27:46;;;;;;;4.80;1.47;;;16.00;95.10;;;;;;5047338;28;20428;-77
2022/06/18 00:30:19;;;;;;;2.93;1.20;;;16.00;95.30;;;;;;5046541;28;20424;-77
2022/06/18 00:32:45;;;;;;;2.63;1.13;;;16.00;95.30;;;;;;5066318;28;20208;-78
2022/06/18 00:35:11;;;;;;;2.37;1.07;;;16.00;95.40;;;;;;5057066;28;21148;-77
2022/06/18 00:37:38;;;;;;;4.30;1.57;;;16.00;95.40;;;;;;5064251;28;21083;-77
2022/06/18 00:40:30;;;;;;;2.10;1.10;;;16.00;95.60;;;;;;5081478;28;20902;-79
2022/06/18 00:43:04;;;;;;;3.63;1.53;;;16.00;95.90;;;;;;5050237;28;20487;-75
2022/06/18 00:45:30;;;;;;;2.37;1.10;;;15.90;95.90;;;;;;5049929;28;20955;-78
2022/06/18 00:48:16;;;;;;;4.07;1.30;;;15.90;95.90;;;;;;5073634;28;20454;-77
2022/06/18 00:51:34;;;;;;;1.70;0.90;;;15.90;95.90;;;;;;5054944;28;20490;-77
2022/06/18 00:54:11;;;;;;;3.17;1.37;;;15.90;95.90;;;;;;5030102;28;20452;-77
2022/06/18 00:56:47;;;;;;;2.60;1.30;;;15.80;95.80;;;;;;5082908;28;20505;-76
2022/06/18 00:59:24;;;;;;;5.63;1.43;;;15.80;96.10;;;;;;5074885;28;20507;-76
2022/06/18 01:01:51;;;;;;;4.03;1.57;;;15.70;96.20;;;;;;5068479;28;20459;-77
2022/06/18 01:04:35;;;;;;;2.20;1.00;;;15.70;96.40;;;;;;5050265;28;20428;-79
2022/06/18 01:07:14;;;;;;;2.07;0.93;;;15.60;96.50;;;;;;5058819;28;20427;-74
2022/06/18 01:09:40;;;;;;;2.47;1.23;;;15.60;96.80;;;;;;5065270;28;20415;-77
2022/06/18 01:12:09;;;;;;;3.10;1.30;;;15.60;96.80;;;;;;5066055;28;20439;-78
2022/06/18 01:14:35;;;;;;;3.33;1.70;;;15.50;97.00;;;;;;5055788;28;20506;-76
2022/06/18 01:17:04;;;;;;;2.10;1.20;;;15.50;97.00;;;;;;5053489;28;20805;-77
2022/06/18 01:19:43;;;;;;;2.97;1.57;;;15.50;97.00;;;;;;5051239;28;20428;-75
2022/06/18 01:22:44;;;;;;;2.03;1.10;;;15.40;97.00;;;;;;5053716;28;21002;-77
2022/06/18 01:25:10;;;;;;;2.97;1.17;;;15.40;97.40;;;;;;5049789;28;20444;-77
2022/06/18 01:27:37;;;;;;;3.47;1.13;;;15.40;97.30;;;;;;5059837;28;20438;-77
2022/06/18 01:30:09;;;;;;;2.27;1.10;;;15.40;97.10;;;;;;5067461;28;20473;-77
2022/06/18 01:32:35;;;;;;;2.83;1.40;;;15.30;97.20;;;;;;5061393;28;20470;-77
2022/06/18 01:35:03;;;;;;;2.20;1.10;;;15.30;97.30;;;;;;5065122;28;20515;-75
2022/06/18 01:37:28;;;;;;;3.20;1.53;;;15.30;97.40;;;;;;5052548;28;20439;-77
2022/06/18 01:39:54;;;;;;;3.60;1.27;;;15.30;97.40;;;;;;5055261;28;20438;-77
2022/06/18 01:42:27;;;;;;;2.20;1.03;;;15.30;97.30;;;;;;5069367;28;20205;-78
2022/06/18 01:45:02;;;;;;;9.87;1.50;;;15.30;97.30;;;;;;5056469;28;20202;-79
2022/06/18 01:47:43;;;;;;;2.23;1.30;;;15.30;97.40;;;;;;5059739;28;20443;-78
2022/06/18 01:50:20;;;;;;;2.27;1.33;;;15.20;97.30;;;;;;5063325;28;20482;-79
2022/06/18 01:53:08;;;;;;;2.00;1.00;;;15.30;97.50;;;;;;5049387;28;20424;-76
2022/06/18 01:55:38;;;;;;;2.43;1.40;;;15.20;97.30;;;;;;5060734;28;20819;-78
2022/06/18 01:58:13;;;;;;;2.63;1.30;;;15.20;97.40;;;;;;5054219;28;20497;-77
2022/06/18 02:00:41;;;;;;;3.60;1.80;;;15.20;97.60;;;;;;5065653;28;20465;-77
2022/06/18 02:03:07;;;;;;;1.70;0.80;;;15.20;97.60;;;;;;5083761;28;20455;-76
2022/06/18 02:05:33;;;;;;;2.83;1.20;;;15.20;97.70;;;;;;5063468;28;20786;-78
2022/06/18 02:07:59;;;;;;;2.80;1.73;;;15.20;97.80;;;;;;5055249;28;21045;-77
2022/06/18 02:10:37;;;;;;;3.73;1.70;;;15.20;97.80;;;;;;5059672;28;21226;-78
2022/06/18 02:13:03;;;;;;;2.90;1.50;;;15.20;97.90;;;;;;5066837;28;20875;-75
2022/06/18 02:15:33;;;;;;;2.10;1.00;;;15.20;97.90;;;;;;5064090;28;20456;-77
2022/06/18 02:18:02;;;;;;;3.20;1.20;;;15.20;97.90;;;;;;5062324;28;20431;-74
2022/06/18 02:20:31;;;;;;;3.50;1.30;;;15.30;97.90;;;;;;5054798;28;21225;-77
2022/06/18 02:22:57;;;;;;;3.13;1.60;;;15.30;98.00;;;;;;5054446;28;20477;-77
2022/06/18 02:25:26;;;;;;;2.77;1.50;;;15.30;97.80;;;;;;5061337;28;21289;-78
2022/06/18 02:27:57;;;;;;;1.60;1.10;;;15.30;97.70;;;;;;5059221;28;20448;-77
2022/06/18 02:30:26;;;;;;;2.57;1.37;;;15.30;97.50;;;;;;5057863;28;20943;-77
2022/06/18 02:32:55;;;;;;;4.77;1.30;;;15.30;97.40;;;;;;5060160;28;20427;-75
2022/06/18 02:35:21;;;;;;;5.00;1.50;;;15.40;97.20;;;;;;5068048;28;20415;-77
2022/06/18 02:37:47;;;;;;;4.10;1.67;;;15.40;97.20;;;;;;5064941;28;20521;-78
2022/06/18 02:40:22;;;;;;;3.40;1.87;;;15.40;96.70;;;;;;5063155;28;20180;-78
2022/06/18 02:42:50;;;;;;;2.93;1.40;;;15.50;96.80;;;;;;5064542;28;20258;-77
2022/06/18 02:45:20;;;;;;;5.30;1.37;;;15.60;96.70;;;;;;5068116;28;20427;-78
2022/06/18 02:47:46;;;;;;;7.53;1.10;;;15.60;96.50;;;;;;5062575;28;20475;-78
2022/06/18 02:50:14;;;;;;;3.60;1.53;;;15.60;96.10;;;;;;5064379;28;20530;-77
2022/06/18 02:52:49;;;;;;;8.30;1.50;;;15.60;95.90;;;;;;5068213;28;20176;-77
2022/06/18 02:55:32;;;;;;;2.03;1.27;;;15.70;95.90;;;;;;5068306;28;20760;-78
2022/06/18 02:58:12;;;;;;;6.20;1.63;;;15.80;94.80;;;;;;5068168;28;20419;-78
2022/06/18 03:00:41;;;;;;;1.77;1.10;;;15.90;94.20;;;;;;5068210;28;20855;-77
2022/06/18 03:03:10;;;;;;;3.43;1.50;;;16.00;94.40;;;;;;5067626;28;20957;-78
2022/06/18 03:05:37;;;;;;;2.97;1.50;;;16.00;94.20;;;;;;5068393;28;20501;-76
2022/06/18 03:08:03;;;;;;;3.67;2.10;;;16.00;93.90;;;;;;5068224;28;20465;-75
2022/06/18 03:13:13;;;;;;;2.07;1.27;;;16.10;93.40;;;;;;5068060;28;21112;-78
2022/06/18 03:15:39;;;;;;;2.70;1.30;;;16.10;93.60;;;;;;5068220;28;20423;-77
2022/06/18 03:18:06;;;;;;;2.17;1.20;;;16.10;93.60;;;;;;5067739;28;20173;-77
2022/06/18 03:21:05;;;;;;;1.97;1.20;;;16.10;93.30;;;;;;5066514;28;20184;-76
2022/06/18 03:23:31;;;;;;;2.47;1.30;;;16.10;93.60;;;;;;5067923;28;20467;-75
2022/06/18 03:25:57;;;;;;;2.43;1.40;;;16.10;93.80;;;;;;5067851;28;20411;-77
2022/06/18 03:28:25;;;;;;;2.37;1.10;;;16.10;93.80;;;;;;5054687;28;20772;-78
2022/06/18 03:30:51;;;;;;;3.77;1.50;;;16.10;93.60;;;;;;5047513;28;20197;-78
2022/06/18 03:33:17;;;;;;;2.37;1.40;;;16.00;93.50;;;;;;5047723;28;20454;-78
2022/06/18 03:35:45;;;;;;;3.20;1.53;;;15.90;94.00;;;;;;5051681;28;20447;-77
2022/06/18 03:38:13;;;;;;;3.27;1.83;;;15.90;93.90;;;;;;5067568;28;20173;-77
2022/06/18 03:40:38;;;;;;;2.93;1.67;;;15.90;94.30;;;;;;5067460;28;20910;-76
2022/06/18 03:43:05;;;;;;;3.77;1.70;;;15.90;94.30;;;;;;5067595;28;20489;-75
2022/06/18 03:45:35;;;;;;;4.70;1.83;;;15.90;94.30;;;;;;5067850;28;20169;-77
2022/06/18 03:48:01;;;;;;;2.87;1.60;;;15.80;94.40;;;;;;5067474;28;20829;-77
2022/06/18 03:50:26;;;;;;;2.67;1.47;;;15.80;94.90;;;;;;5067353;28;20412;-77
2022/06/18 03:52:52;;;;;;;9.50;1.90;;;15.80;94.90;;;;;;5065877;28;20468;-77
2022/06/18 03:55:18;;;;;;;2.93;1.57;;;15.80;94.80;;;;;;5066986;28;20243;-76
2022/06/18 03:57:44;;;;;;;3.83;1.70;;;15.80;94.80;;;;;;5065390;28;20291;-77
2022/06/18 04:00:23;;;;;;;4.77;1.57;;;15.80;95.00;;;;;;5067202;28;20203;-78
2022/06/18 04:02:49;;;;;;;3.20;1.73;;;15.90;94.70;;;;;;5064641;28;20590;-77
2022/06/18 04:05:14;;;;;;;3.00;1.80;;;15.90;95.10;;;;;;5067314;28;20423;-77
2022/06/18 04:07:41;;;;;;;4.80;1.87;;;15.90;94.90;;;;;;5066906;28;20260;-77
2022/06/18 04:10:10;;;;;;;2.63;1.53;;;15.90;94.60;;;;;;5062163;28;20184;-78
2022/06/18 04:12:36;;;;;;;4.30;1.93;;;16.00;95.20;;;;;;5047826;28;20428;-77
2022/06/18 04:15:01;;;;;;;2.73;1.37;;;16.00;95.20;;;;;;5049328;28;20531;-77
2022/06/18 04:17:27;;;;;;;2.33;1.23;;;16.10;95.40;;;;;;5063170;28;20679;-75
2022/06/18 04:19:53;;;;;;;5.80;2.70;;;16.10;95.30;;;;;;5052174;28;20181;-77
2022/06/18 04:22:18;;;;;;;4.07;1.90;;;16.10;95.40;;;;;;5062672;28;20546;-77
2022/06/18 04:24:44;;;;;;;3.83;1.77;;;16.20;95.60;;;;;;5048980;28;20201;-77
2022/06/18 04:27:09;;;;;;;3.70;2.10;;;16.20;95.50;;;;;;5055501;28;21323;-77
2022/06/18 04:29:35;;;;;;;3.87;2.03;;;16.20;95.40;;;;;;5066828;28;20200;-78
2022/06/18 04:32:02;;;;;;;6.60;2.20;;;16.30;95.20;;;;;;5051019;28;20193;-77
2022/06/18 04:34:27;;;;;;;20.23;2.10;;;16.40;95.00;;;;;;5058997;28;20289;-74
2022/06/18 04:36:53;;;;;;;3.73;1.90;;;16.40;94.90;;;;;;5056990;28;20511;-79
2022/06/18 04:39:19;;;;;;;9.63;2.00;;;16.50;94.90;;;;;;5053880;28;20605;-77
2022/06/18 04:41:45;;;;;;;3.13;1.50;;;16.60;94.70;;;;;;5064972;28;20946;-78
2022/06/18 04:44:11;;;;;;;4.20;1.80;;;16.60;95.40;;;;;;5057835;28;20444;-77
2022/06/18 04:46:37;;;;;;;2.70;1.63;;;16.70;95.20;;;;;;5061829;28;20188;-78
2022/06/18 04:49:03;;;;;;;11.40;1.70;;;16.70;95.00;;;;;;5054756;28;20439;-76
2022/06/18 04:51:28;;;;;;;4.00;2.13;;;16.80;94.80;;;;;;5054920;28;20186;-77
2022/06/18 04:53:54;;;;;;;4.87;2.13;;;16.80;95.10;;;;;;5065749;28;20278;-77
2022/06/18 04:56:20;;;;;;;4.50;1.80;;;16.90;95.30;;;;;;5053792;28;20657;-77
2022/06/18 04:58:46;;;;;;;6.50;1.97;;;16.90;94.60;;;;;;5063367;28;20688;-78
2022/06/18 05:01:20;;;;;;;5.60;1.83;;;17.00;94.80;;;;;;5059754;28;20415;-77
2022/06/18 05:03:45;;;;;;;4.60;2.20;;;17.00;95.40;;;;;;5070091;28;20212;-77
2022/06/18 05:06:12;;;;;;;4.13;1.83;;;17.10;95.40;;;;;;5054374;28;20404;-78
2022/06/18 05:08:37;;;;;;;2.80;1.60;;;17.10;95.50;;;;;;5070046;28;20180;-77
2022/06/18 05:11:03;;;;;;;3.27;1.77;;;17.10;95.80;;;;;;5069068;28;20427;-77
2022/06/18 05:13:32;;;;;;;4.53;2.40;;;17.20;96.00;;;;;;5069933;28;20204;-77
2022/06/18 05:15:58;;;;;;;6.23;1.73;;;17.20;96.00;;;;;;5059559;28;20193;-77
2022/06/18 05:18:26;;;;;;;3.50;2.03;;;17.30;96.50;;;;;;5051930;28;20887;-76
2022/06/18 05:20:53;;;;;;;2.63;1.70;;;17.30;95.40;;;;;;5061033;28;20461;-77
2022/06/18 05:23:20;;;;;;;2.90;1.67;;;17.50;95.40;;;;;;5068567;28;20489;-77
2022/06/18 05:25:46;;;;;;;5.73;1.90;;;17.60;95.50;;;;;;5050183;28;21054;-80
2022/06/18 05:28:13;;;;;;;2.77;1.40;;;17.60;95.20;;;;;;5066030;28;20526;-78
2022/06/18 05:30:39;;;;;;;3.70;1.73;;;17.70;95.00;;;;;;5050628;28;20181;-77
2022/06/18 05:33:06;;;;;;;2.50;1.57;;;17.80;95.10;;;;;;5051163;28;20436;-77
2022/06/18 05:35:38;;;;;;;3.40;1.63;;;17.90;93.80;;;;;;5051478;28;20794;-76
2022/06/18 05:38:04;;;;;;;4.67;1.90;;;18.10;93.80;;;;;;5072815;28;21010;-76
2022/06/18 05:40:30;;;;;;;3.83;2.10;;;18.20;93.50;;;;;;5072392;28;20442;-77
2022/06/18 05:42:56;;;;;;;2.17;1.20;;;18.40;93.50;;;;;;5060950;28;20328;-79
2022/06/18 05:45:22;;;;;;;4.10;2.23;;;18.50;93.30;;;;;;5051557;28;20259;-77
2022/06/18 05:47:48;;;;;;;3.73;1.77;;;18.60;93.10;;;;;;5053341;28;20189;-78
2022/06/18 05:50:16;;;;;;;7.40;2.00;;;18.70;93.30;;;;;;5055591;28;20427;-77
2022/06/18 05:52:43;;;;;;;2.97;1.60;;;18.80;93.80;;;;;;5052798;28;20265;-78
2022/06/18 05:55:09;;;;;;;3.97;1.90;;;18.90;93.20;;;;;;5055639;28;20452;-77
2022/06/18 05:57:47;;;;;;;4.40;2.00;;;19.00;93.70;;;;;;5063864;28;20435;-77
2022/06/18 06:00:14;;;;;;;4.30;2.13;;;19.10;93.60;;;;;;5052963;28;20419;-76
2022/06/18 06:02:40;;;;;;;3.70;1.70;;;19.20;92.10;;;;;;5061767;28;20597;-77
2022/06/18 06:05:06;;;;;;;3.10;1.50;;;19.50;88.60;;;;;;5066822;28;20534;-77
2022/06/18 06:07:32;;;;;;;3.27;1.70;;;19.80;86.50;;;;;;5068405;28;20230;-77
2022/06/18 06:12:42;;;;;;;5.10;2.10;;;20.20;86.10;;;;;;5058110;28;20185;-78
2022/06/18 06:15:10;;;;;;;2.53;1.23;;;20.30;87.90;;;;;;5049164;28;20429;-76
2022/06/18 06:17:36;;;;;;;3.40;1.53;;;20.30;85.30;;;;;;5067641;28;20181;-76
2022/06/18 06:20:06;;;;;;;8.40;1.73;;;20.40;85.60;;;;;;5084692;28;20431;-77
2022/06/18 06:22:31;;;;;;;2.00;1.10;;;20.50;84.10;;;;;;5060461;28;20473;-78
2022/06/18 06:24:57;;;;;;;2.47;1.33;;;20.60;83.70;;;;;;5052227;28;20467;-78
2022/06/18 06:27:23;;;;;;;3.07;1.93;;;20.60;85.00;;;;;;5065376;28;20271;-77
2022/06/18 06:29:48;;;;;;;4.40;1.47;;;20.70;85.00;;;;;;5068473;28;20549;-78
2022/06/18 06:32:14;;;;;;;2.37;1.37;;;20.80;83.80;;;;;;5058638;28;20243;-78
2022/06/18 06:34:40;;;;;;;3.50;1.53;;;20.90;83.20;;;;;;5049426;28;20212;-77
2022/06/18 06:37:05;;;;;;;2.37;1.20;;;21.00;82.60;;;;;;5061896;28;20188;-78
2022/06/18 06:39:31;;;;;;;1.90;1.00;;;21.20;82.30;;;;;;5053708;28;20194;-77
2022/06/18 06:41:57;;;;;;;2.97;1.40;;;21.30;83.70;;;;;;5085123;28;20228;-78
2022/06/18 06:44:22;;;;;;;2.57;1.53;;;21.40;82.20;;;;;;5068954;28;20197;-77
2022/06/18 06:46:48;;;;;;;9.07;1.90;;;21.60;81.30;;;;;;5062306;28;20205;-76
2022/06/18 06:49:13;;;;;;;2.63;1.47;;;21.70;81.20;;;;;;5068492;28;20198;-77
2022/06/18 06:51:39;;;;;;;2.50;1.60;;;21.90;82.10;;;;;;5066364;28;20656;-79
2022/06/18 06:54:07;;;;;;;3.90;1.80;;;21.90;81.20;;;;;;5065031;28;20722;-77
2022/06/18 06:59:17;;;;;;;3.70;2.20;;;22.30;78.60;;;;;;5048028;28;20458;-77
2022/06/18 07:01:42;;;;;;;2.50;1.50;;;22.60;77.00;;;;;;5059603;28;21032;-77
2022/06/18 07:04:10;;;;;;;2.00;1.40;;;22.70;77.00;;;;;;5082526;28;20242;-74
2022/06/18 07:06:36;;;;;;;5.80;2.07;;;22.90;76.90;;;;;;5056687;28;20256;-77
2022/06/18 07:09:06;;;;;;;2.60;1.40;;;23.10;77.40;;;;;;5063661;28;20423;-76
2022/06/18 07:11:33;;;;;;;2.07;1.40;;;23.30;76.10;;;;;;5052731;28;20969;-76
2022/06/18 07:13:59;;;;;;;4.83;1.63;;;23.50;76.70;;;;;;5062016;28;20463;-76
2022/06/18 07:16:25;;;;;;;3.87;2.03;;;23.60;76.60;;;;;;5047339;28;20501;-79
2022/06/18 07:18:53;;;;;;;2.10;1.23;;;23.90;76.00;;;;;;5051652;28;20436;-76
2022/06/18 07:21:19;;;;;;;3.50;1.37;;;24.10;74.50;;;;;;5051488;28;20518;-75
2022/06/18 07:23:45;;;;;;;3.40;1.27;;;24.30;75.30;;;;;;5060757;28;20844;-75
2022/06/18 07:26:14;;;;;;;3.23;1.57;;;24.70;73.90;;;;;;5062124;28;20934;-76
2022/06/18 07:28:42;;;;;;;2.13;1.23;;;25.10;73.30;;;;;;5069166;28;20629;-77
2022/06/18 07:31:14;;;;;;;3.87;1.73;;;25.40;71.60;;;;;;5068555;28;20555;-76
2022/06/18 07:33:40;;;;;;;2.50;1.33;;;25.80;71.60;;;;;;5067740;28;21052;-77
2022/06/18 07:36:06;;;;;;;2.23;1.30;;;26.20;69.80;;;;;;5062929;28;20585;-76
2022/06/18 07:38:32;;;;;;;2.70;1.63;;;26.50;68.40;;;;;;5057413;28;20295;-80
2022/06/18 07:40:58;;;;;;;3.00;1.57;;;26.90;66.90;;;;;;5072284;28;20492;-79
2022/06/18 07:43:40;;;;;;;2.03;1.05;;;27.70;64.60;;;;;;5057903;28;20243;-79
2022/06/18 07:46:07;;;;;;;3.15;1.52;;;28.70;59.40;;;;;;5053154;28;20177;-80
2022/06/18 07:48:33;;;;;;;3.05;1.48;;;29.60;58.90;;;;;;5065697;28;20255;-80
2022/06/18 07:50:59;;;;;;;2.67;1.30;;;30.20;57.90;;;;;;5068923;28;20655;-79
2022/06/18 07:53:26;;;;;;;3.83;1.67;;;30.80;56.00;;;;;;5069405;28;20207;-81
2022/06/18 07:55:57;;;;;;;3.58;1.60;;;31.20;54.50;;;;;;5059804;28;20884;-81
2022/06/18 07:58:23;;;;;;;2.67;1.73;;;31.80;52.60;;;;;;5060926;28;20644;-81
2022/06/18 08:00:49;;;;;;;3.83;1.63;;;31.70;54.80;;;;;;5068416;28;20189;-81
2022/06/18 08:03:16;;;;;;;2.90;1.58;;;32.40;51.90;;;;;;5078835;28;20619;-80
2022/06/18 08:05:43;;;;;;;2.20;1.33;;;32.20;53.50;;;;;;5080197;28;20169;-80
2022/06/18 08:08:09;;;;;;;2.58;1.65;;;32.30;53.80;;;;;;5084099;28;20598;-79
2022/06/18 08:10:37;;;;;;;4.75;1.90;;;32.70;52.30;;;;;;5070409;28;20193;-84
2022/06/18 08:13:03;;;;;;;2.60;1.50;;;32.90;51.80;;;;;;5084156;28;20192;-80
2022/06/18 08:15:30;;;;;;;2.72;1.70;;;32.80;52.60;;;;;;5073490;28;20204;-82
2022/06/18 08:17:56;;;;;;;3.15;1.60;;;32.60;52.50;;;;;;5068188;28;20180;-81
2022/06/18 08:20:23;;;;;;;2.42;1.35;;;32.60;53.70;;;;;;5062593;28;20185;-80
2022/06/18 08:22:50;;;;;;;3.08;1.63;;;33.10;52.00;;;;;;5074878;28;20262;-84
2022/06/18 08:25:18;;;;;;;2.00;1.30;;;33.10;52.00;;;;;;5069907;28;20207;-82
2022/06/18 08:27:44;;;;;;;4.82;2.20;;;33.00;52.40;;;;;;5078266;28;20613;-81
2022/06/18 08:30:11;;;;;;;2.83;1.67;;;33.00;51.30;;;;;;5061879;28;20191;-79
2022/06/18 08:32:37;;;;;;;3.10;2.13;;;33.00;51.20;;;;;;5076830;28;20207;-81
2022/06/18 08:35:03;;;;;;;2.53;1.40;;;33.20;50.60;;;;;;5079844;28;20204;-81
2022/06/18 08:37:29;;;;;;;3.00;1.80;;;32.90;51.10;;;;;;5073101;28;20211;-81
2022/06/18 08:39:57;;;;;;;2.60;1.65;;;32.90;52.80;;;;;;5080105;28;20184;-82
2022/06/18 08:42:45;;;;;;;4.07;1.83;;;32.90;50.20;;;;;;5063610;28;20287;-82
2022/06/18 08:45:10;;;;;;;6.55;1.60;;;33.50;51.00;;;;;;5066584;28;20236;-83
2022/06/18 08:47:49;;;;;;;4.95;1.83;;;33.30;48.80;;;;;;5053492;28;20178;-81
2022/06/18 08:50:29;;;;;;;2.45;1.42;;;33.50;47.10;;;;;;5054206;28;20174;-82
2022/06/18 08:53:20;;;;;;;2.25;1.15;;;33.80;46.70;;;;;;5058173;28;20200;-80
2022/06/18 08:55:57;;;;;;;2.20;1.20;;;33.60;47.90;;;;;;5074288;28;20173;-82
2022/06/18 08:58:25;;;;;;;2.38;1.45;;;33.70;48.20;;;;;;5080655;28;20214;-81
2022/06/18 09:01:00;;;;;;;3.22;1.70;;;33.30;47.20;;;;;;5089442;28;20418;-82
2022/06/18 09:03:50;;;;;;;3.20;1.70;;;33.20;47.90;;;;;;5079007;28;20223;-83
2022/06/18 09:06:39;;;;;;;3.13;1.60;;;33.70;46.00;;;;;;5088070;28;20195;-84
2022/06/18 09:09:36;;;;;;;2.40;1.35;;;33.40;47.80;;;;;;5074111;28;20181;-81
2022/06/18 09:12:04;;;;;;;2.42;1.38;;;33.50;47.60;;;;;;5079392;28;20283;-81
2022/06/18 09:14:34;;;;;;;2.42;1.38;;;33.60;47.30;;;;;;5078128;28;20201;-81
2022/06/18 09:17:25;;;;;;;2.42;1.33;;;33.40;49.40;;;;;;5078648;28;20183;-81
2022/06/18 09:20:04;;;;;;;3.10;1.90;;;33.40;48.90;;;;;;5071684;28;20196;-79
2022/06/18 09:22:32;;;;;;;2.47;1.58;;;33.20;48.60;;;;;;5065344;28;20181;-83
2022/06/18 09:25:07;;;;;;;3.17;1.98;;;33.30;49.10;;;;;;5085445;28;20323;-85
2022/06/18 09:27:43;;;;;;;2.35;1.40;;;33.20;50.30;;;;;;5076654;28;20180;-84
2022/06/18 09:30:17;;;;;;;2.90;1.42;;;33.30;52.30;;;;;;5067973;28;20200;-84
2022/06/18 09:32:55;;;;;;;2.10;1.20;;;33.00;50.70;;;;;;5082035;28;20196;-83
2022/06/18 09:35:36;;;;;;;1.90;0.82;;;32.80;48.60;;;;;;5078633;28;20172;-81
2022/06/18 09:38:11;;;;;;;3.10;1.67;;;32.90;50.80;;;;;;5068200;28;20161;-82
2022/06/18 09:40:52;;;;;;;8.93;1.65;;;33.20;48.00;;;;;;5083417;28;20185;-81
2022/06/18 09:43:26;;;;;;;4.95;1.30;;;33.20;50.10;;;;;;5068615;28;20204;-82
2022/06/18 09:45:56;;;;;;;2.40;1.20;;;33.10;48.80;;;;;;5089998;28;20195;-82
2022/06/18 09:48:22;;;;;;;2.95;1.35;;;33.00;48.60;;;;;;5072819;28;20188;-85
2022/06/18 09:50:56;;;;;;;4.05;1.40;;;32.90;50.30;;;;;;5069587;28;20719;-81
2022/06/18 09:53:36;;;;;;;2.95;1.52;;;33.30;47.00;;;;;;5063327;28;20638;-83
2022/06/18 09:56:09;;;;;;;2.95;1.58;;;33.20;47.80;;;;;;5058252;28;20161;-83
2022/06/18 09:58:48;;;;;;;3.20;1.67;;;33.20;48.30;;;;;;5062150;28;20249;-83
2022/06/18 10:01:18;;;;;;;2.30;1.55;;;32.80;51.70;;;;;;5075685;28;20325;-81
2022/06/18 10:06:55;;;;;;;2.00;1.08;;;32.80;47.60;;;;;;5076219;28;20191;-81
2022/06/18 10:09:42;;;;;;;2.80;1.50;;;32.90;49.30;;;;;;5063844;28;20652;-81
2022/06/18 10:12:23;;;;;;;5.88;1.63;;;33.20;51.20;;;;;;5073915;28;20214;-80
2022/06/18 10:15:03;;;;;;;5.28;1.30;;;32.90;48.70;;;;;;5092330;28;20192;-81
2022/06/18 10:17:47;;;;;;;2.55;1.27;;;33.00;49.60;;;;;;5071003;28;20678;-83
2022/06/18 10:20:31;;;;;;;2.33;1.17;;;33.10;47.70;;;;;;5074580;28;20187;-81
2022/06/18 10:23:29;;;;;;;6.78;1.25;;;33.10;45.70;;;;;;5055347;28;20271;-81
2022/06/18 10:25:57;;;;;;;3.65;1.48;;;33.10;43.50;;;;;;5059172;28;20193;-81
2022/06/18 10:28:51;;;;;;;3.60;1.15;;;33.00;45.20;;;;;;5057787;28;20196;-80
2022/06/18 10:31:19;;;;;;;1.90;0.90;;;33.20;43.60;;;;;;5060303;28;20263;-80
2022/06/18 10:33:45;;;;;;;2.33;0.95;;;32.90;44.20;;;;;;5064520;28;20248;-80
2022/06/18 10:36:22;;;;;;;2.17;1.02;;;32.40;46.30;;;;;;5066786;28;20248;-81
2022/06/18 10:39:14;;;;;;;3.92;1.38;;;32.40;46.60;;;;;;5067362;28;20173;-80
2022/06/18 10:42:18;;;;;;;2.22;0.95;;;32.50;43.30;;;;;;5052165;28;20181;-80
2022/06/18 10:45:18;;;;;;;3.88;1.13;;;32.50;44.90;;;;;;5052617;28;20200;-82
2022/06/18 10:47:46;;;;;;;13.10;1.02;;;32.20;46.80;;;;;;5051812;28;20196;-80
2022/06/18 10:50:16;;;;;;;1.70;0.90;;;32.30;44.90;;;;;;5052380;28;20188;-80
2022/06/18 10:52:43;;;;;;;2.00;0.90;;;32.50;45.10;;;;;;5054370;28;20323;-81
2022/06/18 10:55:15;;;;;;;4.13;1.50;;;32.40;46.20;;;;;;5053453;28;20198;-78
2022/06/18 10:57:41;;;;;;;7.85;1.83;;;32.50;48.70;;;;;;5052392;28;20185;-80
2022/06/18 11:00:27;;;;;;;2.20;1.08;;;32.30;47.00;;;;;;5053209;28;20195;-80
2022/06/18 11:02:57;;;;;;;3.03;1.33;;;32.30;46.20;;;;;;5053042;28;20158;-79
2022/06/18 11:05:43;;;;;;;4.68;1.45;;;32.30;44.80;;;;;;5054950;28;20345;-80
2022/06/18 11:08:25;;;;;;;11.32;1.48;;;32.30;43.80;;;;;;5054910;28;20545;-81
2022/06/18 11:10:56;;;;;;;7.28;1.30;;;32.30;43.60;;;;;;5054927;28;20206;-80
2022/06/18 11:13:44;;;;;;;4.03;1.50;;;32.20;45.10;;;;;;5053872;28;20304;-80
2022/06/18 11:16:21;;;;;;;4.65;1.33;;;32.50;46.10;;;;;;5055951;28;20181;-80
2022/06/18 11:18:50;;;;;;;2.78;1.70;;;32.70;46.10;;;;;;5055129;28;20174;-81
2022/06/18 11:21:30;;;;;;;2.90;1.23;;;32.50;45.90;;;;;;5054866;28;20184;-82
2022/06/18 11:24:01;;;;;;;4.55;1.67;;;32.60;47.60;;;;;;5071949;28;20224;-81
2022/06/18 11:26:28;;;;;;;3.28;1.58;;;32.70;49.30;;;;;;5076259;28;20184;-79
2022/06/18 11:28:57;;;;;;;12.75;2.33;;;32.80;49.20;;;;;;5076788;28;20678;-80
2022/06/18 11:31:33;;;;;;;4.30;1.70;;;32.70;50.00;;;;;;5076382;28;20181;-80
2022/06/18 11:34:06;;;;;;;6.53;1.85;;;32.90;49.80;;;;;;5074706;28;20303;-80
2022/06/18 11:36:48;;;;;;;3.60;1.30;;;32.60;48.40;;;;;;5064689;28;20537;-80
2022/06/18 11:39:24;;;;;;;12.57;2.13;;;32.80;52.30;;;;;;5062878;28;20283;-81
2022/06/18 11:41:53;;;;;;;5.82;2.00;;;33.00;51.00;;;;;;5062498;28;20271;-80
2022/06/18 11:44:34;;;;;;;4.13;2.67;;;32.90;49.00;;;;;;5064759;28;20228;-80
2022/06/18 11:47:22;;;;;;;19.10;2.38;;;32.90;50.00;;;;;;5068808;28;20181;-81
2022/06/18 11:49:59;;;;;;;6.88;2.40;;;32.80;48.80;;;;;;5073317;28;20192;-79
2022/06/18 11:52:33;;;;;;;19.17;2.92;;;33.00;50.10;;;;;;5073023;28;20203;-80
2022/06/18 11:55:25;;;;;;;6.45;2.38;;;32.90;48.40;;;;;;5069995;28;20200;-82
2022/06/18 11:57:59;;;;;;;10.75;2.50;;;32.70;48.90;;;;;;5069114;28;20975;-80
2022/06/18 12:00:28;;;;;;;9.73;1.95;;;32.60;49.20;;;;;;5072123;28;20239;-81
2022/06/18 12:03:18;;;;;;;5.10;1.50;;;32.90;49.40;;;;;;5073895;28;20609;-80
2022/06/18 12:05:59;;;;;;;8.18;2.13;;;33.00;47.80;;;;;;5075895;28;20185;-81
2022/06/18 12:08:24;;;;;;;5.25;2.08;;;33.20;49.10;;;;;;5075213;28;20160;-80
2022/06/18 12:10:56;;;;;;;10.45;2.05;;;33.20;49.60;;;;;;5069943;28;20195;-79
2022/06/18 12:13:35;;;;;;;9.15;2.17;;;33.20;46.90;;;;;;5051258;28;20216;-79
2022/06/18 12:16:23;;;;;;;8.40;1.48;;;33.40;50.10;;;;;;5047833;28;20207;-79
2022/06/18 12:19:04;;;;;;;7.20;2.33;;;33.20;48.90;;;;;;5062296;28;20590;-79
2022/06/18 12:21:41;;;;;;;5.50;1.90;;;33.10;46.90;;;;;;5050221;28;20181;-79
2022/06/18 12:24:07;;;;;;;3.67;2.00;;;33.20;48.30;;;;;;5052811;28;20253;-79
2022/06/18 12:26:51;;;;;;;4.13;2.10;;;33.30;49.40;;;;;;5052055;28;20172;-79
2022/06/18 12:29:33;;;;;;;8.32;2.15;;;33.50;48.60;;;;;;5062937;28;20226;-79
2022/06/18 12:32:07;;;;;;;8.82;1.70;;;33.70;48.60;;;;;;5053978;28;20208;-80
2022/06/18 12:34:38;;;;;;;8.90;2.42;;;33.70;47.70;;;;;;5052926;28;20197;-79
2022/06/18 12:37:43;;;;;;;8.90;1.90;;;33.40;49.30;;;;;;5060662;28;20187;-79
2022/06/18 12:40:29;;;;;;;5.80;1.83;;;33.60;48.70;;;;;;5051376;28;20169;-80
2022/06/18 12:42:57;;;;;;;4.85;1.77;;;33.70;49.70;;;;;;5049231;28;20201;-78
2022/06/18 12:45:51;;;;;;;27.08;2.22;;;34.00;49.70;;;;;;5060874;28;20188;-79
2022/06/18 12:48:43;;;;;;;17.98;2.72;;;33.90;49.50;;;;;;5060752;28;20188;-80
2022/06/18 12:51:17;;;;;;;18.75;2.85;;;34.20;51.90;;;;;;5084406;28;20283;-78
2022/06/18 12:54:06;;;;;;;7.40;2.00;;;34.10;49.50;;;;;;5067381;28;20602;-80
2022/06/18 12:56:41;;;;;;;13.88;1.80;;;34.00;50.20;;;;;;5052760;28;20192;-80
2022/06/18 12:59:25;;;;;;;4.15;2.35;;;33.80;48.70;;;;;;5052493;28;20187;-79
2022/06/18 13:02:11;;;;;;;3.85;1.70;;;33.80;50.80;;;;;;5079819;28;20268;-79
2022/06/18 13:04:55;;;;;;;7.07;2.00;;;33.80;50.20;;;;;;5056665;28;20216;-78
2022/06/18 13:07:41;;;;;;;9.02;2.30;;;34.00;51.40;;;;;;5061252;28;20168;-80
2022/06/18 13:10:36;;;;;;;4.18;1.50;;;34.20;50.60;;;;;;5057343;28;20177;-79
2022/06/18 13:13:10;;;;;;;9.20;2.55;;;33.80;49.30;;;;;;5064960;28;20208;-80
2022/06/18 13:15:42;;;;;;;4.65;2.28;;;33.60;48.30;;;;;;5084974;28;20260;-79
2022/06/18 13:18:16;;;;;;;16.58;2.72;;;33.50;47.50;;;;;;5057578;28;20192;-79
2022/06/18 13:20:47;;;;;;;5.53;1.75;;;33.30;47.10;;;;;;5060968;28;20180;-79
2022/06/18 13:29:08;;;;;;;9.15;2.28;;;33.40;47.90;;;;;;5057617;28;20253;-79